createdAt,value
2023-01-06T00:00:41.322Z,3.40
2023-01-06T00:05:42.967Z,3.45
2023-01-06T00:10:44.841Z,3.70
2023-01-06T00:15:46.871Z,3.63
2023-01-06T00:20:48.563Z,3.07
2023-01-06T00:25:51.188Z,3.03
2023-01-06T00:30:53.155Z,2.63
2023-01-06T00:35:59.358Z,2.70
2023-01-06T00:41:04.229Z,3.20
2023-01-06T00:46:06.064Z,3.00
2023-01-06T00:51:07.808Z,3.80
2023-01-06T00:56:09.479Z,3.58
2023-01-06T01:01:11.519Z,2.85
2023-01-06T01:06:13.466Z,2.43
2023-01-06T01:11:35.081Z,2.53
2023-01-06T01:16:36.889Z,2.38
2023-01-06T01:21:39.387Z,2.83
2023-01-06T01:26:41.683Z,2.70
2023-01-06T01:31:44.401Z,2.33
2023-01-06T01:41:49.501Z,2.23
2023-01-06T01:46:51.295Z,2.17
2023-01-06T01:51:56.972Z,2.00
2023-01-06T01:57:05.277Z,1.85
2023-01-06T02:02:07.149Z,1.98
2023-01-06T02:07:09.184Z,2.10
2023-01-06T02:12:11.526Z,1.70
2023-01-06T02:17:47.304Z,1.90
2023-01-06T02:23:13.791Z,1.80
2023-01-06T02:28:51.842Z,2.10
2023-01-06T02:34:03.513Z,2.22
2023-01-06T02:39:30.467Z,1.70
2023-01-06T02:44:46.736Z,2.28
2023-01-06T02:50:00.546Z,2.25
2023-01-06T02:55:12.780Z,2.38
2023-01-06T03:00:21.283Z,2.40
2023-01-06T03:05:25.674Z,2.13
2023-01-06T03:10:29.831Z,2.40
2023-01-06T03:15:31.851Z,2.28
2023-01-06T03:20:34.142Z,2.80
2023-01-06T03:25:38.293Z,2.20
2023-01-06T03:31:05.767Z,2.47
2023-01-06T03:36:28.248Z,3.17
2023-01-06T03:41:58.801Z,2.40
2023-01-06T03:47:15.152Z,2.45
2023-01-06T03:52:31.095Z,2.33
2023-01-06T03:57:37.878Z,2.30
2023-01-06T04:02:43.440Z,2.40
2023-01-06T04:07:50.907Z,2.53
2023-01-06T04:12:53.970Z,2.63
2023-01-06T04:18:00.590Z,2.42
2023-01-06T04:23:05.925Z,2.55
2023-01-06T04:28:11.854Z,3.28
2023-01-06T04:33:13.661Z,2.90
2023-01-06T04:38:18.137Z,2.80
2023-01-06T04:43:19.950Z,2.67
2023-01-06T04:48:22.212Z,3.58
2023-01-06T04:53:23.888Z,3.60
2023-01-06T04:58:25.604Z,4.32
2023-01-06T05:03:27.561Z,4.60
2023-01-06T05:08:31.042Z,4.20
2023-01-06T05:13:33.310Z,4.00
2023-01-06T05:18:35.159Z,4.10
2023-01-06T05:23:37.834Z,3.72
2023-01-06T05:28:39.526Z,3.45
2023-01-06T05:33:41.583Z,5.68
2023-01-06T05:38:43.463Z,4.90
2023-01-06T05:43:45.273Z,5.50
2023-01-06T05:48:46.986Z,5.13
2023-01-06T05:53:49.134Z,6.20
2023-01-06T05:58:52.635Z,5.00
2023-01-06T06:03:54.772Z,5.70
2023-01-06T06:08:57.861Z,6.03
2023-01-06T06:13:59.614Z,5.50
2023-01-06T06:19:01.377Z,4.00
2023-01-06T06:24:03.295Z,4.70
2023-01-06T06:29:06.438Z,4.95
2023-01-06T06:34:12.447Z,4.50
2023-01-06T06:39:14.158Z,10.25
2023-01-06T06:44:15.851Z,5.03
2023-01-06T06:49:17.879Z,4.90
2023-01-06T06:54:19.549Z,4.20
2023-01-06T06:59:21.235Z,3.63
2023-01-06T07:04:22.984Z,3.90
2023-01-06T07:09:24.728Z,4.40
2023-01-06T07:14:26.506Z,5.20
2023-01-06T07:19:28.553Z,4.45
2023-01-06T07:24:30.211Z,4.93
2023-01-06T07:29:31.867Z,5.30
2023-01-06T07:34:33.600Z,5.13
2023-01-06T07:39:35.409Z,4.47
2023-01-06T07:44:37.680Z,5.30
2023-01-06T07:49:39.386Z,5.90
2023-01-06T07:54:41.126Z,5.28
2023-01-06T07:59:42.723Z,5.05
2023-01-06T08:04:44.583Z,4.90
2023-01-06T08:09:46.243Z,4.40
2023-01-06T08:14:47.985Z,5.03
2023-01-06T08:19:49.750Z,5.35
2023-01-06T08:24:51.500Z,4.25
2023-01-06T08:29:55.227Z,4.63
2023-01-06T08:34:56.802Z,4.50
2023-01-06T08:39:58.499Z,5.32
2023-01-06T08:45:00.308Z,6.43
2023-01-06T08:50:02.164Z,7.03
2023-01-06T08:55:04.247Z,6.10
2023-01-06T09:00:07.323Z,5.07
2023-01-06T09:05:09.409Z,4.07
2023-01-06T09:10:13.679Z,2.67
2023-01-06T09:15:15.900Z,2.90
2023-01-06T09:20:17.846Z,2.92
2023-01-06T09:25:21.475Z,2.93
2023-01-06T09:30:25.181Z,2.80
2023-01-06T09:35:27.078Z,2.75
2023-01-06T09:41:10.094Z,2.67
2023-01-06T09:46:14.168Z,2.78
2023-01-06T09:51:22.757Z,2.88
2023-01-06T09:56:25.635Z,3.60
2023-01-06T10:11:51.349Z,3.40
2023-01-06T10:17:24.232Z,3.20
2023-01-06T10:22:49.788Z,3.08
2023-01-06T10:27:59.264Z,3.40
2023-01-06T10:33:01.814Z,3.20
2023-01-06T10:38:06.888Z,3.67
2023-01-06T10:43:12.344Z,3.50
2023-01-06T10:48:20.138Z,3.10
2023-01-06T10:53:21.906Z,3.20
2023-01-06T10:58:41.851Z,3.53
2023-01-06T11:03:45.076Z,3.08
2023-01-06T11:08:47.195Z,4.75
2023-01-06T11:13:55.971Z,6.13
2023-01-06T11:19:04.204Z,6.95
2023-01-06T11:24:17.919Z,6.65
2023-01-06T11:29:26.502Z,6.18
2023-01-06T11:34:31.270Z,7.05
2023-01-06T11:39:35.885Z,6.88
2023-01-06T11:44:40.291Z,7.00
2023-01-06T11:49:54.426Z,5.90
2023-01-06T11:54:57.541Z,5.07
2023-01-06T12:00:33.207Z,4.07
2023-01-06T12:05:43.092Z,3.95
2023-01-06T12:10:48.323Z,4.20
2023-01-06T12:16:00.103Z,3.95
2023-01-06T12:21:04.888Z,3.70
2023-01-06T12:26:16.284Z,3.42
2023-01-06T12:31:35.216Z,3.30
2023-01-06T12:36:47.921Z,3.10
2023-01-06T12:41:57.681Z,3.80
2023-01-06T12:47:06.367Z,4.05
2023-01-06T12:52:15.332Z,3.80
2023-01-06T12:57:16.983Z,3.70
2023-01-06T13:02:25.260Z,4.28
2023-01-06T13:07:42.439Z,4.70
2023-01-06T13:12:44.069Z,4.30
2023-01-06T13:18:05.760Z,4.30
2023-01-06T13:23:16.513Z,3.90
2023-01-06T13:28:40.963Z,3.60
2023-01-06T13:34:01.160Z,3.70
2023-01-06T13:39:23.228Z,5.50
2023-01-06T13:44:29.296Z,4.73
2023-01-06T13:49:31.953Z,4.82
2023-01-06T13:54:39.790Z,4.85
2023-01-06T13:59:52.576Z,4.43
2023-01-06T14:04:54.279Z,3.90
2023-01-06T14:09:56.031Z,4.50
2023-01-06T14:15:01.564Z,3.50
2023-01-06T14:20:04.043Z,3.00
2023-01-06T14:25:08.827Z,3.20
2023-01-06T14:30:21.024Z,3.30
2023-01-06T14:35:29.419Z,3.30
2023-01-06T14:40:39.668Z,3.47
2023-01-06T14:45:42.977Z,3.80
2023-01-06T14:50:51.970Z,4.07
2023-01-06T14:55:55.203Z,3.58
2023-01-06T15:00:57.898Z,4.38
2023-01-06T15:11:33.395Z,4.70
2023-01-06T15:16:38.794Z,4.55
2023-01-06T15:21:42.850Z,5.43
2023-01-06T15:26:44.561Z,6.70
2023-01-06T15:31:48.088Z,6.13
2023-01-06T15:36:53.373Z,4.90
2023-01-06T15:41:56.822Z,4.90
2023-01-06T15:47:06.484Z,4.47
2023-01-06T15:52:24.447Z,5.20
2023-01-06T15:57:30.388Z,5.95
2023-01-06T16:02:33.498Z,7.70
2023-01-06T16:07:39.050Z,6.20
2023-01-06T16:12:40.801Z,4.55
2023-01-06T16:17:46.355Z,4.97
2023-01-06T16:22:51.258Z,3.60
2023-01-06T16:27:59.279Z,3.30
2023-01-06T16:33:01.052Z,3.38
2023-01-06T16:38:03.631Z,3.30
2023-01-06T16:43:05.301Z,4.47
2023-01-06T16:48:07.092Z,4.55
2023-01-06T16:53:15.329Z,4.03
2023-01-06T16:58:22.950Z,3.63
2023-01-06T17:03:28.689Z,3.60
2023-01-06T17:08:34.557Z,3.83
2023-01-06T17:13:36.633Z,2.88
2023-01-06T17:18:52.430Z,3.23
2023-01-06T17:24:25.539Z,3.00
2023-01-06T17:29:32.767Z,4.18
2023-01-06T17:34:36.952Z,4.40
2023-01-06T17:39:41.025Z,4.32
2023-01-06T17:44:48.765Z,4.60
2023-01-06T17:50:01.119Z,4.30
2023-01-06T17:55:27.450Z,2.83
2023-01-06T18:00:34.866Z,3.20
2023-01-06T18:05:36.550Z,3.00
2023-01-06T18:10:42.583Z,3.03
2023-01-06T18:15:46.590Z,3.55
2023-01-06T18:21:19.532Z,5.75
2023-01-06T18:26:24.019Z,3.22
2023-01-06T18:31:32.125Z,2.97
2023-01-06T18:36:33.889Z,2.28
2023-01-06T18:41:35.583Z,3.30
2023-01-06T18:46:40.388Z,2.63
2023-01-06T18:51:42.754Z,2.40
2023-01-06T18:56:44.549Z,3.33
2023-01-06T19:01:50.469Z,3.22
2023-01-06T19:06:57.966Z,2.97
2023-01-06T19:12:13.375Z,3.38
2023-01-06T19:17:33.156Z,2.30
2023-01-06T19:22:38.028Z,2.25
2023-01-06T19:28:02.494Z,2.67
2023-01-06T19:33:18.182Z,2.40
2023-01-06T19:38:25.527Z,3.00
2023-01-06T19:43:33.016Z,3.10
2023-01-06T19:48:41.248Z,3.03
2023-01-06T19:53:49.046Z,3.95
2023-01-06T19:58:58.516Z,4.93
2023-01-06T20:04:00.732Z,3.42
2023-01-06T20:09:02.476Z,3.55
2023-01-06T20:14:04.256Z,3.67
2023-01-06T20:19:05.949Z,4.32
2023-01-06T20:24:07.912Z,3.95
2023-01-06T20:29:09.964Z,4.20
2023-01-06T20:34:11.670Z,3.47
2023-01-06T20:39:15.109Z,3.05
2023-01-06T20:44:16.801Z,3.30
2023-01-06T20:49:20.494Z,3.13
2023-01-06T20:54:22.343Z,2.72
2023-01-06T20:59:24.378Z,3.10
2023-01-06T21:04:26.228Z,3.00
2023-01-06T21:09:29.235Z,2.70
2023-01-06T21:14:32.251Z,3.22
2023-01-06T21:19:34.684Z,3.13
2023-01-06T21:24:36.412Z,3.10
2023-01-06T21:29:38.174Z,2.95
2023-01-06T21:34:39.917Z,4.03
2023-01-06T21:39:41.843Z,2.58
2023-01-06T21:44:43.779Z,2.65
2023-01-06T21:49:45.988Z,2.83
2023-01-06T21:54:47.818Z,2.90
2023-01-06T21:59:49.691Z,2.65
2023-01-06T22:04:52.582Z,2.55
2023-01-06T22:09:55.465Z,3.80
2023-01-06T22:19:59.304Z,3.20
2023-01-06T22:25:01.870Z,3.20
2023-01-06T22:30:04.930Z,2.60
2023-01-06T22:35:07.419Z,3.03
2023-01-06T22:40:11.025Z,2.90
2023-01-06T22:45:13.187Z,3.58
2023-01-06T22:50:15.202Z,3.17
2023-01-06T22:55:16.955Z,3.17
2023-01-06T23:00:19.065Z,2.85
2023-01-06T23:05:20.970Z,2.95
2023-01-06T23:10:22.857Z,3.63
2023-01-06T23:15:24.617Z,3.40
2023-01-06T23:20:26.334Z,3.40
2023-01-06T23:25:27.977Z,3.00
2023-01-06T23:30:29.635Z,3.05
2023-01-06T23:35:31.965Z,3.47
2023-01-06T23:40:33.725Z,3.10
2023-01-06T23:45:35.567Z,2.78
2023-01-06T23:50:37.370Z,3.42
2023-01-06T23:55:38.966Z,3.00
